createdAt,value
2018-09-26T11:19:27.062Z,101693.01
2018-09-26T11:21:55.698Z,101686.77
2018-09-26T11:24:24.530Z,101692.52
2018-09-26T11:26:53.216Z,101681.17
2018-09-26T11:29:21.987Z,101682.84
2018-09-26T11:31:50.976Z,101680.53
2018-09-26T11:34:19.654Z,101665.78
2018-09-26T11:36:48.404Z,101664.95
2018-09-26T11:39:17.310Z,101669.31
2018-09-26T11:41:45.849Z,101661.42
2018-09-26T11:44:14.539Z,101652.36
2018-09-26T11:46:43.494Z,101643.86
2018-09-26T11:49:12.094Z,101646.65
2018-09-26T11:51:41.283Z,101635.62
2018-09-26T11:54:09.861Z,101625.02
2018-09-26T11:56:38.447Z,101624.72
2018-09-26T11:59:07.399Z,101622.72
2018-09-26T12:01:36.127Z,101632.70
2018-09-26T12:04:05.004Z,101616.55
2018-09-26T12:06:33.702Z,101616.53
2018-09-26T12:09:02.287Z,101611.82
2018-09-26T12:11:30.854Z,101603.85
2018-09-26T12:13:59.552Z,101601.45
2018-09-26T12:16:28.278Z,101596.88
2018-09-26T12:18:56.839Z,101587.26
2018-09-26T12:21:30.537Z,101575.41
2018-09-26T12:23:54.414Z,101565.06
2018-09-26T12:26:23.070Z,101556.69
2018-09-26T12:28:51.645Z,101551.12
2018-09-26T12:31:20.268Z,101547.88
2018-09-26T12:33:48.866Z,101547.72
2018-09-26T12:36:17.537Z,101544.90
2018-09-26T12:38:46.413Z,101537.50
2018-09-26T12:41:15.192Z,101531.36
2018-09-26T12:43:43.871Z,101531.67
2018-09-26T12:46:12.504Z,101530.06
2018-09-26T12:48:41.258Z,101522.72
2018-09-26T12:51:09.855Z,101522.20
2018-09-26T12:53:38.490Z,101511.06
2018-09-26T12:56:07.545Z,101514.19
2018-09-26T12:58:36.281Z,101511.86
2018-09-26T13:01:04.963Z,101500.32
2018-09-26T13:03:33.596Z,101501.03
2018-09-26T13:06:02.170Z,101491.37
2018-09-26T13:08:30.737Z,101494.42
2018-09-26T13:10:59.301Z,101488.63
2018-09-26T13:13:27.846Z,101483.88
2018-09-26T13:15:57.373Z,101480.78
2018-09-26T13:18:26.202Z,101487.30
2018-09-26T13:20:54.990Z,101489.83
2018-09-26T13:23:23.508Z,101487.19
2018-09-26T13:25:52.101Z,101483.95
2018-09-26T13:28:20.708Z,101487.11
2018-09-26T13:30:49.699Z,101474.73
2018-09-26T13:33:19.383Z,101472.16
2018-09-26T13:35:48.326Z,101467.61
2018-09-26T13:38:17.042Z,101453.71
2018-09-26T13:40:46.094Z,101454.39
2018-09-26T13:43:14.667Z,101450.25
2018-09-26T13:45:43.320Z,101438.08
2018-09-26T13:48:12.043Z,101442.55
2018-09-26T13:50:40.838Z,101427.33
2018-09-26T13:53:09.433Z,101433.61
2018-09-26T13:55:38.146Z,101435.34
2018-09-26T13:58:07.247Z,101439.36
2018-09-26T14:00:36.199Z,101427.63
2018-09-26T14:03:04.758Z,101410.59
2018-09-26T14:05:33.415Z,101418.72
2018-09-26T14:08:01.995Z,101411.42
2018-09-26T14:10:30.601Z,101412.77
2018-09-26T14:12:59.188Z,101401.92
2018-09-26T14:15:28.126Z,101395.95
2018-09-26T14:17:56.855Z,101386.88
2018-09-26T14:20:25.627Z,101389.28
2018-09-26T14:22:55.012Z,101388.98
2018-09-26T14:25:23.684Z,101378.69
2018-09-26T14:27:52.462Z,101380.67
2018-09-26T14:30:21.139Z,101371.63
2018-09-26T14:32:49.922Z,101365.54
2018-09-26T14:35:18.726Z,101364.89
2018-09-26T14:37:47.639Z,101351.13
2018-09-26T14:40:16.374Z,101339.03
2018-09-26T14:42:45.066Z,101340.25
2018-09-26T14:45:13.652Z,101341.03
2018-09-26T14:47:42.766Z,101334.10
2018-09-26T14:50:11.352Z,101331.98
2018-09-26T14:52:40.722Z,101330.22
2018-09-26T14:55:09.476Z,101324.13
2018-09-26T14:57:38.374Z,101329.75
2018-09-26T15:00:07.935Z,101322.70
2018-09-26T15:02:36.672Z,101327.37
2018-09-26T15:05:05.243Z,101320.84
2018-09-26T15:07:33.841Z,101316.92
2018-09-26T15:10:02.394Z,101317.88
2018-09-26T15:12:31.078Z,101311.09
2018-09-26T15:14:59.858Z,101301.87
2018-09-26T15:17:28.498Z,101294.64
2018-09-26T15:20:05.002Z,101292.17
2018-09-26T15:22:33.758Z,101290.20
2018-09-26T15:25:02.345Z,101280.16
2018-09-26T15:27:30.988Z,101288.67
2018-09-26T15:29:59.613Z,101284.89
2018-09-26T15:32:28.278Z,101285.63
2018-09-26T15:34:56.936Z,101285.40
2018-09-26T15:37:25.461Z,101270.58
2018-09-26T15:39:54.004Z,101263.84
2018-09-26T15:42:22.557Z,101267.38
2018-09-26T15:44:51.490Z,101265.93
2018-09-26T15:47:20.058Z,101264.97
2018-09-26T15:49:48.617Z,101265.82
2018-09-26T15:52:17.171Z,101262.59
2018-09-26T15:54:45.946Z,101264.45
2018-09-26T15:57:14.490Z,101270.66
2018-09-26T15:59:43.058Z,101273.34
2018-09-26T16:02:11.723Z,101257.39
2018-09-26T16:04:40.518Z,101258.09
2018-09-26T16:07:09.143Z,101255.28
2018-09-26T16:09:37.719Z,101250.59
2018-09-26T16:12:06.367Z,101245.39
2018-09-26T16:14:35.112Z,101248.36
2018-09-26T16:17:03.694Z,101249.12
2018-09-26T16:19:32.458Z,101255.85
2018-09-26T16:22:01.088Z,101246.16
2018-09-26T16:24:29.667Z,101247.49
2018-09-26T16:26:58.259Z,101256.20
2018-09-26T16:29:26.854Z,101242.29
2018-09-26T16:31:55.620Z,101236.59
2018-09-26T16:34:24.252Z,101232.88
2018-09-26T16:36:53.057Z,101225.02
2018-09-26T16:39:21.847Z,101223.30
2018-09-26T16:41:50.621Z,101223.44
2018-09-26T16:44:19.300Z,101224.03
2018-09-26T16:46:48.066Z,101231.77
2018-09-26T16:49:16.723Z,101237.24
2018-09-26T16:51:45.377Z,101235.66
2018-09-26T16:54:14.084Z,101249.10
2018-09-26T16:56:42.904Z,101251.06
2018-09-26T16:59:11.508Z,101245.19
2018-09-26T17:01:40.095Z,101238.05
2018-09-26T17:04:08.773Z,101238.50
2018-09-26T17:06:37.546Z,101235.17
2018-09-26T17:09:07.794Z,101218.53
2018-09-26T17:11:36.353Z,101205.63
2018-09-26T17:22:05.064Z,101211.94
2018-09-26T17:24:33.996Z,101198.65
2018-09-26T17:27:02.680Z,101206.81
2018-09-26T17:29:31.264Z,101185.36
2018-09-26T17:31:59.849Z,101185.55
2018-09-26T17:34:28.451Z,101186.27
2018-09-26T17:36:57.022Z,101195.33
2018-09-26T17:39:25.654Z,101201.75
2018-09-26T17:41:54.345Z,101200.01
2018-09-26T17:44:23.026Z,101199.40
2018-09-26T17:46:51.590Z,101195.77
2018-09-26T17:49:20.220Z,101201.84
2018-09-26T17:51:48.977Z,101204.44
2018-09-26T17:54:17.854Z,101202.15
2018-09-26T17:56:46.546Z,101206.02
2018-09-26T17:59:15.210Z,101205.19
2018-09-26T18:01:43.891Z,101202.58
2018-09-26T18:04:12.698Z,101198.38
2018-09-26T18:06:41.519Z,101211.86
2018-09-26T18:09:11.191Z,101204.54
2018-09-26T18:11:39.885Z,101204.52
2018-09-26T18:14:08.514Z,101200.73
2018-09-26T18:16:37.834Z,101200.63
2018-09-26T18:19:07.117Z,101198.05
2018-09-26T18:21:35.784Z,101201.12
2018-09-26T18:24:04.424Z,101206.85
2018-09-26T18:26:33.008Z,101196.83
2018-09-26T18:29:01.573Z,101199.47
2018-09-26T18:31:30.429Z,101206.95
2018-09-26T18:33:59.021Z,101201.40
2018-09-26T18:36:27.649Z,101206.97
2018-09-26T18:38:56.372Z,101205.33
2018-09-26T18:41:25.178Z,101191.67
2018-09-26T18:43:53.821Z,101195.56
2018-09-26T18:46:22.358Z,101193.02
2018-09-26T18:48:50.962Z,101207.81
2018-09-26T18:51:19.568Z,101216.22
2018-09-26T18:53:48.171Z,101209.64
2018-09-26T18:56:17.090Z,101219.92
2018-09-26T18:58:45.967Z,101202.52
2018-09-26T19:01:14.810Z,101198.36
2018-09-26T19:03:43.553Z,101201.94
2018-09-26T19:06:12.138Z,101208.03
2018-09-26T19:08:40.719Z,101209.52
2018-09-26T19:11:09.398Z,101204.81
2018-09-26T19:13:38.051Z,101197.55
2018-09-26T19:16:06.934Z,101203.30
2018-09-26T19:18:35.589Z,101193.22
2018-09-26T19:21:04.241Z,101195.56
2018-09-26T19:23:33.043Z,101196.84
2018-09-26T19:26:01.620Z,101184.62
2018-09-26T19:28:30.183Z,101181.12
2018-09-26T19:30:58.854Z,101179.48
2018-09-26T19:33:27.637Z,101181.34
2018-09-26T19:35:56.425Z,101177.09
2018-09-26T19:38:25.062Z,101168.65
2018-09-26T19:40:53.618Z,101161.77
2018-09-26T19:43:22.158Z,101165.67
2018-09-26T19:45:50.965Z,101171.90
2018-09-26T19:48:19.674Z,101164.92
2018-09-26T19:50:48.316Z,101168.23
2018-09-26T19:53:16.954Z,101167.53
2018-09-26T19:55:45.558Z,101169.14
2018-09-26T19:58:14.221Z,101168.11
2018-09-26T20:00:42.950Z,101176.23
2018-09-26T20:03:11.530Z,101172.97
2018-09-26T20:05:40.747Z,101166.38
2018-09-26T20:08:09.482Z,101168.44
2018-09-26T20:10:38.194Z,101175.77
2018-09-26T20:13:06.832Z,101165.23
2018-09-26T20:15:35.585Z,101163.31
2018-09-26T20:18:04.142Z,101162.13
2018-09-26T20:20:32.715Z,101163.46
2018-09-26T20:23:01.344Z,101163.19
2018-09-26T20:25:30.204Z,101164.92
2018-09-26T20:27:58.805Z,101158.22
2018-09-26T20:30:27.361Z,101144.48
2018-09-26T20:32:56.013Z,101139.30
2018-09-26T20:35:24.835Z,101131.06
2018-09-26T20:37:53.542Z,101120.33
2018-09-26T20:40:22.081Z,101122.36
2018-09-26T20:42:50.815Z,101112.51
2018-09-26T20:45:19.424Z,101108.08
2018-09-26T20:47:48.253Z,101115.51
2018-09-26T20:50:16.830Z,101125.23
2018-09-26T20:52:45.381Z,101119.80
2018-09-26T20:55:13.951Z,101122.38
2018-09-26T20:57:42.509Z,101120.10
2018-09-26T21:00:11.177Z,101125.00
2018-09-26T21:02:39.754Z,101126.66
2018-09-26T21:05:08.351Z,101126.91
2018-09-26T21:07:37.046Z,101119.13
2018-09-26T21:10:05.624Z,101118.50
2018-09-26T21:12:34.226Z,101117.91
2018-09-26T21:15:02.771Z,101115.75
2018-09-26T21:17:31.465Z,101115.63
2018-09-26T21:20:00.237Z,101117.64
2018-09-26T21:22:28.847Z,101119.98
2018-09-26T21:24:57.422Z,101126.61
2018-09-26T21:27:26.008Z,101115.61
2018-09-26T21:29:54.630Z,101111.95
2018-09-26T21:32:23.321Z,101114.14
2018-09-26T21:34:52.795Z,101110.61
2018-09-26T21:37:21.630Z,101106.05
2018-09-26T21:39:50.329Z,101099.00
2018-09-26T21:42:18.873Z,101098.55
2018-09-26T21:44:47.414Z,101101.16
2018-09-26T21:47:15.978Z,101097.62
2018-09-26T21:49:44.527Z,101104.34
2018-09-26T21:52:13.240Z,101108.45
2018-09-26T21:54:41.967Z,101104.20
2018-09-26T21:57:10.696Z,101099.61
2018-09-26T21:59:39.293Z,101098.55
2018-09-26T22:02:07.955Z,101090.59
2018-09-26T22:04:36.487Z,101090.59
2018-09-26T22:07:05.119Z,101093.39
2018-09-26T22:09:33.902Z,101101.70
2018-09-26T22:12:02.627Z,101101.12
2018-09-26T22:14:31.255Z,101093.39
2018-09-26T22:17:00.179Z,101104.70
2018-09-26T22:19:29.140Z,101097.80
2018-09-26T22:21:57.663Z,101083.19
2018-09-26T22:24:26.234Z,101085.72
2018-09-26T22:26:54.810Z,101082.86
2018-09-26T22:29:23.537Z,101085.91
2018-09-26T22:31:52.276Z,101085.72
2018-09-26T22:34:20.823Z,101079.38
2018-09-26T22:36:49.378Z,101066.48
2018-09-26T22:39:17.907Z,101072.51
2018-09-26T22:41:46.458Z,101075.30
2018-09-26T22:44:15.019Z,101075.93
2018-09-26T22:46:43.671Z,101081.92
2018-09-26T22:49:12.378Z,101084.81
2018-09-26T22:51:40.988Z,101083.41
2018-09-26T22:54:09.582Z,101090.94
2018-09-26T22:56:38.250Z,101087.73
2018-09-26T22:59:06.831Z,101083.39
2018-09-26T23:01:35.480Z,101077.56
2018-09-26T23:04:04.284Z,101079.12
2018-09-26T23:06:32.900Z,101080.50
2018-09-26T23:09:01.654Z,101082.81
2018-09-26T23:11:30.232Z,101074.47
2018-09-26T23:13:59.067Z,101082.93
2018-09-26T23:16:27.639Z,101085.47
2018-09-26T23:18:56.336Z,101087.13
2018-09-26T23:21:25.635Z,101081.50
2018-09-26T23:23:54.279Z,101085.09
2018-09-26T23:26:22.942Z,101085.02
2018-09-26T23:28:52.116Z,101084.95
2018-09-26T23:31:21.372Z,101087.06
2018-09-26T23:33:50.102Z,101106.85
2018-09-26T23:36:18.660Z,101109.80
2018-09-26T23:38:47.264Z,101099.73
2018-09-26T23:41:16.086Z,101092.60
2018-09-26T23:43:45.660Z,101098.58
2018-09-26T23:46:14.322Z,101098.03
2018-09-26T23:48:43.068Z,101083.92
2018-09-26T23:51:12.390Z,101089.30
2018-09-26T23:53:41.215Z,101075.92
2018-09-26T23:56:09.782Z,101073.73
2018-09-26T23:58:38.361Z,101068.89
